Weather at Florø Airport

Public forecast

Using degrees Celsius for public forecast. Weather courtesy of forecast.io.

Current aviation weather report (METAR) for Florø Airport

2024/05/21 12:20 (retrieved 12 minutes ago)

ENFL 211220Z 30007KT CAVOK 21/07 Q1019

Closest aviation forecast (TAF) to Florø Airport

Closest forecast is Bergen Airport, Flesland, 77.7 nm (143.8 km) S.

2024/05/21 12:37 (retrieved 0 seconds ago)

TAF ENBR 211100Z 2112/2212 25007KT CAVOK BECMG 2113/2115 33010KT BECMG 2120/2122 12005KT